Union, KY

11:31 PM EDT on September 15, 2014 (GMT -0400)
Cincinnati Municipal-Lunken | Change Station
CLOSE
Current Station
Airport
Location: Cincinnati,
Elevation: 482 ft
Nearby Weather Stations

Elev 482 ft 39.10 °N, 84.42 °W | Updated 38 minutes ago

Overcast
Overcast
60 °F
Feels Like 60 °F
N
4
Wind Variable Wind from East

Today
High -- | Low -- °F
--% Chance of Precip.
Yesterday
High -- | Low -- °F
Precip. -- in
7:20 AM 7:47 PM
Waning Gibbous, 49% visible
Pressure 30.11 in
Visibility 8.0 miles
Clouds Mostly Cloudy 5000 ft
Overcast 6500 ft
Dew Point 59 °F
Humidity 96%
Rainfall 0.16 in
Snow Depth Not available.
UV 0 out of 12
Pollen 5.00 out of 12
Air Quality Not available.
Flu Activity Not available.
METAR KLUK 160253Z 08003KT 8SM BKN050 OVC065 16/15 A3011 RMK AO2 RAB09E29 SLP195 P0003 60010 T01560150 51007

More Conditions Fewer Conditions

Pressure 30.11 in
Visibility 8.0 miles
Clouds Mostly Cloudy 5000 ft
Overcast 6500 ft
Dew Point 59 °F
Humidity 96%
Rainfall 0.16 in
Snow Depth Not available.
UV 0 out of 12
Pollen 5.00 out of 12
Air Quality Not available.
Flu Activity Not available.
METAR KLUK 160253Z 08003KT 8SM BKN050 OVC065 16/15 A3011 RMK AO2 RAB09E29 SLP195 P0003 60010 T01560150 51007

More Conditions Fewer Conditions

10-Day Weather Forecast

Almanac

Astronomy

Sep. 15, 2014 Rise Set
Actual Time 7:20 AM EDT 7:47 PM EDT
Civil Twilight 6:53 AM EDT 8:13 PM EDT
Nautical Twilight 6:22 AM EDT 8:45 PM EDT
Astronomical Twilight 5:49 AM EDT 9:17 PM EDT
Moon No Moon Rise 2:16 PM EDT (9/15)
Length of Visible Light 13h 20m
Length of Day
12h 26m
Tomorrow will be 2m 30s shorter.
Waning Gibbous, 49% of the Moon is Illuminated
Today
Waning Gibbous
Sep 24
New
Oct 1
First Quarter
Oct 8
Full
Oct 15
Last Quarter

Today's Extremes

State Highs State Lows

Community

WunderPhotos

Upload Photos

1,753,693 photos uploaded!

Nearby

Snow Depth

Station Depth Elevation
No new snow has been reported.

Earthquake Activity

City Distance Mag. Time & Date
No recent earthquake activity has been reported nearby.
Minimum magnitude displayed is 2.5.

Coastal Water Temperatures

Place Temperature
No Stations Reporting

Nearby Weather Stations